sensor_id;sensor_type;location;lat;lon;timestamp;noise_LAeq;noise_LA_min;noise_LA_max;noise_LA01;noise_LA95
74234;Laerm;62591;55.764;37.718;2023-04-01T00:01:17;42.93;37.49;62.40;;
74234;Laerm;62591;55.764;37.718;2023-04-01T00:03:46;44.12;38.00;57.92;;
74234;Laerm;62591;55.764;37.718;2023-04-01T00:06:16;43.28;37.98;57.90;;
74234;Laerm;62591;55.764;37.718;2023-04-01T00:08:46;45.95;37.56;56.45;;
74234;Laerm;62591;55.764;37.718;2023-04-01T00:11:14;43.43;37.41;58.05;;
74234;Laerm;62591;55.764;37.718;2023-04-01T00:13:48;45.05;37.90;57.76;;
74234;Laerm;62591;55.764;37.718;2023-04-01T00:16:17;44.77;38.09;60.33;;
74234;Laerm;62591;55.764;37.718;2023-04-01T00:18:49;43.45;37.51;58.21;;
74234;Laerm;62591;55.764;37.718;2023-04-01T00:21:18;42.88;37.24;58.44;;
74234;Laerm;62591;55.764;37.718;2023-04-01T00:23:47;43.85;37.44;58.41;;
74234;Laerm;62591;55.764;37.718;2023-04-01T00:26:16;44.86;38.32;58.37;;
74234;Laerm;62591;55.764;37.718;2023-04-01T00:28:49;43.49;38.00;58.80;;
74234;Laerm;62591;55.764;37.718;2023-04-01T00:31:18;43.08;37.24;58.52;;
74234;Laerm;62591;55.764;37.718;2023-04-01T00:33:47;44.43;37.83;57.83;;
74234;Laerm;62591;55.764;37.718;2023-04-01T00:36:18;47.32;37.49;61.59;;
74234;Laerm;62591;55.764;37.718;2023-04-01T00:38:49;46.91;38.90;61.22;;
74234;Laerm;62591;55.764;37.718;2023-04-01T00:41:19;47.66;38.10;59.81;;
74234;Laerm;62591;55.764;37.718;2023-04-01T00:43:51;45.67;38.41;57.17;;
74234;Laerm;62591;55.764;37.718;2023-04-01T00:46:19;44.53;38.29;57.36;;
74234;Laerm;62591;55.764;37.718;2023-04-01T00:48:53;45.30;38.02;56.47;;
74234;Laerm;62591;55.764;37.718;2023-04-01T00:51:25;45.65;38.79;65.01;;
74234;Laerm;62591;55.764;37.718;2023-04-01T00:53:56;45.62;38.60;63.62;;
74234;Laerm;62591;55.764;37.718;2023-04-01T00:56:30;46.80;40.08;64.87;;
74234;Laerm;62591;55.764;37.718;2023-04-01T00:59:02;47.37;38.77;66.10;;
74234;Laerm;62591;55.764;37.718;2023-04-01T01:01:32;46.90;38.66;66.34;;
74234;Laerm;62591;55.764;37.718;2023-04-01T01:04:01;47.66;41.40;65.53;;
74234;Laerm;62591;55.764;37.718;2023-04-01T01:06:39;47.08;41.65;66.64;;
74234;Laerm;62591;55.764;37.718;2023-04-01T01:09:25;47.37;40.89;66.52;;
74234;Laerm;62591;55.764;37.718;2023-04-01T01:12:03;47.06;41.56;65.31;;
74234;Laerm;62591;55.764;37.718;2023-04-01T01:14:48;46.79;41.58;65.40;;
74234;Laerm;62591;55.764;37.718;2023-04-01T01:17:26;47.43;41.73;65.41;;
74234;Laerm;62591;55.764;37.718;2023-04-01T01:20:14;47.45;40.88;64.91;;
74234;Laerm;62591;55.764;37.718;2023-04-01T01:23:05;46.77;41.12;65.96;;
74234;Laerm;62591;55.764;37.718;2023-04-01T01:25:40;49.19;42.03;65.35;;
74234;Laerm;62591;55.764;37.718;2023-04-01T01:28:24;47.17;41.36;64.95;;
74234;Laerm;62591;55.764;37.718;2023-04-01T01:31:02;47.73;41.92;65.22;;
74234;Laerm;62591;55.764;37.718;2023-04-01T01:33:48;47.01;41.48;64.77;;
74234;Laerm;62591;55.764;37.718;2023-04-01T01:36:21;51.89;41.65;68.09;;
74234;Laerm;62591;55.764;37.718;2023-04-01T01:38:51;46.38;40.79;64.94;;
74234;Laerm;62591;55.764;37.718;2023-04-01T01:41:20;46.96;41.29;64.95;;
74234;Laerm;62591;55.764;37.718;2023-04-01T01:43:50;47.40;41.58;65.55;;
74234;Laerm;62591;55.764;37.718;2023-04-01T01:46:24;46.33;41.25;66.34;;
74234;Laerm;62591;55.764;37.718;2023-04-01T01:48:55;52.00;41.58;66.92;;
74234;Laerm;62591;55.764;37.718;2023-04-01T01:51:27;53.31;42.13;65.53;;
74234;Laerm;62591;55.764;37.718;2023-04-01T01:54:00;47.46;41.32;65.97;;
74234;Laerm;62591;55.764;37.718;2023-04-01T01:56:30;47.14;41.01;65.31;;
74234;Laerm;62591;55.764;37.718;2023-04-01T01:59:03;46.87;41.00;62.53;;
74234;Laerm;62591;55.764;37.718;2023-04-01T02:01:37;45.58;40.17;62.54;;
74234;Laerm;62591;55.764;37.718;2023-04-01T02:04:12;47.39;40.36;65.23;;
74234;Laerm;62591;55.764;37.718;2023-04-01T02:06:46;46.46;40.66;65.98;;
74234;Laerm;62591;55.764;37.718;2023-04-01T02:09:18;50.71;40.92;65.68;;
74234;Laerm;62591;55.764;37.718;2023-04-01T02:11:49;48.02;41.32;65.79;;
74234;Laerm;62591;55.764;37.718;2023-04-01T02:14:21;48.87;43.24;62.90;;
74234;Laerm;62591;55.764;37.718;2023-04-01T02:16:55;47.04;42.69;59.30;;
74234;Laerm;62591;55.764;37.718;2023-04-01T02:19:29;46.77;42.68;58.85;;
74234;Laerm;62591;55.764;37.718;2023-04-01T02:22:04;47.57;42.03;60.77;;
74234;Laerm;62591;55.764;37.718;2023-04-01T02:24:35;48.11;41.93;59.85;;
74234;Laerm;62591;55.764;37.718;2023-04-01T02:27:06;47.63;41.86;58.29;;
74234;Laerm;62591;55.764;37.718;2023-04-01T02:29:35;47.14;41.71;57.87;;
74234;Laerm;62591;55.764;37.718;2023-04-01T02:32:07;47.60;41.70;57.41;;
74234;Laerm;62591;55.764;37.718;2023-04-01T02:34:36;46.97;41.97;58.51;;
74234;Laerm;62591;55.764;37.718;2023-04-01T02:37:07;49.67;41.47;63.57;;
74234;Laerm;62591;55.764;37.718;2023-04-01T02:39:35;46.27;41.34;56.99;;
74234;Laerm;62591;55.764;37.718;2023-04-01T02:42:04;48.75;42.23;59.32;;
74234;Laerm;62591;55.764;37.718;2023-04-01T02:44:32;46.80;39.70;66.04;;
74234;Laerm;62591;55.764;37.718;2023-04-01T02:47:01;50.55;39.96;64.82;;
74234;Laerm;62591;55.764;37.718;2023-04-01T02:49:30;46.73;40.23;57.41;;
74234;Laerm;62591;55.764;37.718;2023-04-01T02:51:58;48.11;41.13;64.23;;
74234;Laerm;62591;55.764;37.718;2023-04-01T02:54:28;47.91;41.47;60.89;;
74234;Laerm;62591;55.764;37.718;2023-04-01T02:56:57;47.75;40.94;58.13;;
74234;Laerm;62591;55.764;37.718;2023-04-01T02:59:25;47.97;41.24;58.84;;
74234;Laerm;62591;55.764;37.718;2023-04-01T03:01:53;49.54;41.25;61.48;;
74234;Laerm;62591;55.764;37.718;2023-04-01T03:04:22;49.89;40.04;68.20;;
74234;Laerm;62591;55.764;37.718;2023-04-01T03:06:51;48.62;40.71;65.72;;
74234;Laerm;62591;55.764;37.718;2023-04-01T03:09:20;47.50;40.18;62.62;;
74234;Laerm;62591;55.764;37.718;2023-04-01T03:11:50;49.66;41.15;63.88;;
74234;Laerm;62591;55.764;37.718;2023-04-01T03:14:18;49.45;41.33;69.70;;
74234;Laerm;62591;55.764;37.718;2023-04-01T03:16:47;48.83;42.03;60.28;;
74234;Laerm;62591;55.764;37.718;2023-04-01T03:19:15;48.59;41.71;58.11;;
74234;Laerm;62591;55.764;37.718;2023-04-01T03:21:44;48.69;41.95;58.31;;
74234;Laerm;62591;55.764;37.718;2023-04-01T03:24:12;49.12;40.84;58.59;;
74234;Laerm;62591;55.764;37.718;2023-04-01T03:26:41;49.06;42.40;59.82;;
74234;Laerm;62591;55.764;37.718;2023-04-01T03:29:11;49.78;42.46;60.69;;
74234;Laerm;62591;55.764;37.718;2023-04-01T03:31:43;49.31;41.94;58.68;;
74234;Laerm;62591;55.764;37.718;2023-04-01T03:34:14;51.44;42.26;67.29;;
74234;Laerm;62591;55.764;37.718;2023-04-01T03:36:43;51.76;41.85;67.32;;
74234;Laerm;62591;55.764;37.718;2023-04-01T03:39:11;50.17;41.44;66.54;;
74234;Laerm;62591;55.764;37.718;2023-04-01T03:41:41;48.78;41.06;61.59;;
74234;Laerm;62591;55.764;37.718;2023-04-01T03:44:11;49.87;41.72;61.44;;
74234;Laerm;62591;55.764;37.718;2023-04-01T03:46:40;48.41;41.11;59.32;;
74234;Laerm;62591;55.764;37.718;2023-04-01T03:49:10;48.75;41.40;61.34;;
74234;Laerm;62591;55.764;37.718;2023-04-01T03:51:40;48.84;41.10;63.46;;
74234;Laerm;62591;55.764;37.718;2023-04-01T03:54:09;47.83;40.95;61.18;;
74234;Laerm;62591;55.764;37.718;2023-04-01T03:56:38;51.53;41.84;65.20;;
74234;Laerm;62591;55.764;37.718;2023-04-01T03:59:07;52.58;43.90;67.30;;
74234;Laerm;62591;55.764;37.718;2023-04-01T04:01:38;50.18;41.57;66.43;;
74234;Laerm;62591;55.764;37.718;2023-04-01T04:04:07;49.89;41.62;61.20;;
74234;Laerm;62591;55.764;37.718;2023-04-01T04:06:38;49.94;41.53;61.58;;
74234;Laerm;62591;55.764;37.718;2023-04-01T04:09:07;49.18;41.26;62.07;;
74234;Laerm;62591;55.764;37.718;2023-04-01T04:11:35;49.18;41.59;59.31;;
74234;Laerm;62591;55.764;37.718;2023-04-01T04:14:04;51.03;42.08;67.43;;
74234;Laerm;62591;55.764;37.718;2023-04-01T04:16:34;52.44;41.72;72.49;;
74234;Laerm;62591;55.764;37.718;2023-04-01T04:19:05;49.29;41.32;62.14;;
74234;Laerm;62591;55.764;37.718;2023-04-01T04:21:34;50.31;42.22;59.28;;
74234;Laerm;62591;55.764;37.718;2023-04-01T04:24:04;54.42;41.87;75.23;;
74234;Laerm;62591;55.764;37.718;2023-04-01T04:26:52;48.64;41.24;58.27;;
74234;Laerm;62591;55.764;37.718;2023-04-01T04:29:21;49.99;40.71;69.66;;
74234;Laerm;62591;55.764;37.718;2023-04-01T04:31:50;49.23;41.79;58.59;;
74234;Laerm;62591;55.764;37.718;2023-04-01T04:34:20;50.18;41.74;59.24;;
74234;Laerm;62591;55.764;37.718;2023-04-01T04:36:49;50.01;41.79;60.10;;
74234;Laerm;62591;55.764;37.718;2023-04-01T04:39:19;49.99;41.16;58.96;;
74234;Laerm;62591;55.764;37.718;2023-04-01T04:41:48;49.46;42.19;58.73;;
74234;Laerm;62591;55.764;37.718;2023-04-01T04:44:17;49.01;42.29;59.43;;
74234;Laerm;62591;55.764;37.718;2023-04-01T04:46:46;49.77;41.99;61.03;;
74234;Laerm;62591;55.764;37.718;2023-04-01T04:49:16;49.98;42.45;59.77;;
74234;Laerm;62591;55.764;37.718;2023-04-01T04:51:46;51.12;42.09;60.28;;
74234;Laerm;62591;55.764;37.718;2023-04-01T04:54:16;50.33;42.19;65.92;;
74234;Laerm;62591;55.764;37.718;2023-04-01T04:56:51;53.39;44.15;66.35;;
74234;Laerm;62591;55.764;37.718;2023-04-01T04:59:21;49.97;42.96;60.63;;
74234;Laerm;62591;55.764;37.718;2023-04-01T05:02:10;53.79;44.95;62.76;;
74234;Laerm;62591;55.764;37.718;2023-04-01T05:04:39;52.78;43.93;62.96;;
74234;Laerm;62591;55.764;37.718;2023-04-01T05:07:11;61.52;44.73;76.20;;
74234;Laerm;62591;55.764;37.718;2023-04-01T05:09:40;51.19;44.97;69.45;;
74234;Laerm;62591;55.764;37.718;2023-04-01T05:12:08;50.86;44.13;58.79;;
74234;Laerm;62591;55.764;37.718;2023-04-01T05:14:54;50.79;43.53;60.09;;
74234;Laerm;62591;55.764;37.718;2023-04-01T05:17:23;52.15;44.76;62.37;;
74234;Laerm;62591;55.764;37.718;2023-04-01T05:19:52;51.42;45.52;58.78;;
74234;Laerm;62591;55.764;37.718;2023-04-01T05:22:22;53.57;47.44;67.63;;
74234;Laerm;62591;55.764;37.718;2023-04-01T05:24:51;52.64;44.29;62.91;;
74234;Laerm;62591;55.764;37.718;2023-04-01T05:27:20;54.39;45.62;64.27;;
74234;Laerm;62591;55.764;37.718;2023-04-01T05:29:49;52.75;45.73;61.20;;
74234;Laerm;62591;55.764;37.718;2023-04-01T05:32:36;52.73;45.21;69.29;;
74234;Laerm;62591;55.764;37.718;2023-04-01T05:35:05;54.64;45.77;64.24;;
74234;Laerm;62591;55.764;37.718;2023-04-01T05:37:36;52.54;44.52;62.97;;
74234;Laerm;62591;55.764;37.718;2023-04-01T05:40:06;53.60;44.85;67.03;;
74234;Laerm;62591;55.764;37.718;2023-04-01T05:42:34;52.17;44.85;64.57;;
74234;Laerm;62591;55.764;37.718;2023-04-01T05:45:06;54.44;47.08;70.81;;
74234;Laerm;62591;55.764;37.718;2023-04-01T05:48:01;51.69;44.32;66.60;;
74234;Laerm;62591;55.764;37.718;2023-04-01T05:50:36;53.33;44.78;66.71;;
74234;Laerm;62591;55.764;37.718;2023-04-01T05:53:06;55.46;47.22;68.23;;
74234;Laerm;62591;55.764;37.718;2023-04-01T05:55:36;54.19;45.61;68.25;;
74234;Laerm;62591;55.764;37.718;2023-04-01T05:58:05;52.91;43.85;68.12;;
74234;Laerm;62591;55.764;37.718;2023-04-01T06:00:36;51.63;43.87;61.20;;
74234;Laerm;62591;55.764;37.718;2023-04-01T06:03:05;51.50;42.88;60.27;;
74234;Laerm;62591;55.764;37.718;2023-04-01T06:05:38;52.57;44.87;60.54;;
74234;Laerm;62591;55.764;37.718;2023-04-01T06:08:13;52.12;43.52;60.19;;
74234;Laerm;62591;55.764;37.718;2023-04-01T06:10:57;53.34;45.49;67.03;;
74234;Laerm;62591;55.764;37.718;2023-04-01T06:13:44;51.83;42.73;61.78;;
74234;Laerm;62591;55.764;37.718;2023-04-01T06:16:27;51.03;43.40;64.69;;
74234;Laerm;62591;55.764;37.718;2023-04-01T06:19:20;53.31;42.82;65.09;;
74234;Laerm;62591;55.764;37.718;2023-04-01T06:22:22;53.42;44.74;62.18;;
74234;Laerm;62591;55.764;37.718;2023-04-01T06:25:24;52.55;42.51;62.23;;
74234;Laerm;62591;55.764;37.718;2023-04-01T06:28:10;50.97;42.55;60.91;;
74234;Laerm;62591;55.764;37.718;2023-04-01T06:30:52;50.83;42.81;65.68;;
74234;Laerm;62591;55.764;37.718;2023-04-01T06:33:40;52.93;43.34;64.51;;
74234;Laerm;62591;55.764;37.718;2023-04-01T06:36:25;51.15;43.23;60.99;;
74234;Laerm;62591;55.764;37.718;2023-04-01T06:39:07;54.41;44.02;63.66;;
74234;Laerm;62591;55.764;37.718;2023-04-01T06:42:06;51.36;41.29;59.98;;
74234;Laerm;62591;55.764;37.718;2023-04-01T06:44:46;53.29;43.66;66.51;;
74234;Laerm;62591;55.764;37.718;2023-04-01T06:47:48;50.64;43.03;65.29;;
74234;Laerm;62591;55.764;37.718;2023-04-01T06:50:43;52.07;44.44;64.61;;
74234;Laerm;62591;55.764;37.718;2023-04-01T06:53:54;52.13;44.91;62.77;;
74234;Laerm;62591;55.764;37.718;2023-04-01T07:00:10;52.47;43.39;75.41;;
74234;Laerm;62591;55.764;37.718;2023-04-01T07:02:44;51.89;44.57;68.46;;
74234;Laerm;62591;55.764;37.718;2023-04-01T07:05:22;51.27;44.23;59.55;;
74234;Laerm;62591;55.764;37.718;2023-04-01T07:07:54;51.16;42.50;57.78;;
74234;Laerm;62591;55.764;37.718;2023-04-01T07:10:33;52.75;43.03;64.51;;
74234;Laerm;62591;55.764;37.718;2023-04-01T07:13:25;51.48;42.12;67.39;;
74234;Laerm;62591;55.764;37.718;2023-04-01T07:16:07;50.08;41.79;61.55;;
74234;Laerm;62591;55.764;37.718;2023-04-01T07:18:42;50.73;43.09;58.99;;
74234;Laerm;62591;55.764;37.718;2023-04-01T07:21:21;52.15;42.39;61.63;;
74234;Laerm;62591;55.764;37.718;2023-04-01T07:23:53;51.78;42.48;61.32;;
74234;Laerm;62591;55.764;37.718;2023-04-01T07:26:35;52.40;41.80;64.19;;
74234;Laerm;62591;55.764;37.718;2023-04-01T07:29:12;53.40;44.92;64.12;;
74234;Laerm;62591;55.764;37.718;2023-04-01T07:34:51;49.44;42.51;60.12;;
74234;Laerm;62591;55.764;37.718;2023-04-01T07:37:28;51.08;42.95;59.94;;
74234;Laerm;62591;55.764;37.718;2023-04-01T07:40:09;50.72;42.95;56.34;;
74234;Laerm;62591;55.764;37.718;2023-04-01T07:42:51;51.78;41.66;64.25;;
74234;Laerm;62591;55.764;37.718;2023-04-01T07:45:29;51.02;42.54;60.58;;
74234;Laerm;62591;55.764;37.718;2023-04-01T07:48:18;50.78;42.76;57.49;;
74234;Laerm;62591;55.764;37.718;2023-04-01T07:50:55;49.31;41.02;58.73;;
74234;Laerm;62591;55.764;37.718;2023-04-01T07:53:32;51.18;42.82;58.75;;
74234;Laerm;62591;55.764;37.718;2023-04-01T07:56:07;50.02;44.27;57.93;;
74234;Laerm;62591;55.764;37.718;2023-04-01T07:58:51;50.29;41.92;62.43;;
74234;Laerm;62591;55.764;37.718;2023-04-01T08:01:58;50.54;41.63;60.59;;
74234;Laerm;62591;55.764;37.718;2023-04-01T08:04:52;48.46;40.35;56.81;;
74234;Laerm;62591;55.764;37.718;2023-04-01T08:07:26;49.56;40.90;56.63;;
74234;Laerm;62591;55.764;37.718;2023-04-01T08:10:24;50.22;43.12;58.32;;
74234;Laerm;62591;55.764;37.718;2023-04-01T08:13:17;51.21;42.73;62.06;;
74234;Laerm;62591;55.764;37.718;2023-04-01T08:16:31;48.90;42.06;57.83;;
74234;Laerm;62591;55.764;37.718;2023-04-01T08:19:15;51.89;42.09;62.64;;
74234;Laerm;62591;55.764;37.718;2023-04-01T08:21:57;52.34;43.34;65.83;;
74234;Laerm;62591;55.764;37.718;2023-04-01T08:24:33;53.19;41.94;63.93;;
74234;Laerm;62591;55.764;37.718;2023-04-01T08:27:22;52.28;42.95;65.32;;
74234;Laerm;62591;55.764;37.718;2023-04-01T08:29:58;51.49;42.92;67.16;;
74234;Laerm;62591;55.764;37.718;2023-04-01T08:32:34;49.62;40.99;60.60;;
74234;Laerm;62591;55.764;37.718;2023-04-01T08:35:14;51.33;42.35;61.06;;
74234;Laerm;62591;55.764;37.718;2023-04-01T08:37:48;49.05;41.13;57.06;;
74234;Laerm;62591;55.764;37.718;2023-04-01T08:40:47;50.13;42.31;65.44;;
74234;Laerm;62591;55.764;37.718;2023-04-01T08:43:21;51.30;42.40;57.26;;
74234;Laerm;62591;55.764;37.718;2023-04-01T08:46:19;49.16;43.92;58.75;;
74234;Laerm;62591;55.764;37.718;2023-04-01T08:49:11;50.18;43.47;61.04;;
74234;Laerm;62591;55.764;37.718;2023-04-01T08:52:00;48.61;43.58;59.76;;
74234;Laerm;62591;55.764;37.718;2023-04-01T08:55:02;51.64;42.83;66.42;;
74234;Laerm;62591;55.764;37.718;2023-04-01T08:58:20;49.86;41.43;58.31;;
74234;Laerm;62591;55.764;37.718;2023-04-01T09:01:31;49.61;42.50;70.07;;
74234;Laerm;62591;55.764;37.718;2023-04-01T09:04:47;49.04;40.74;68.62;;
74234;Laerm;62591;55.764;37.718;2023-04-01T09:07:30;51.82;42.34;62.63;;
74234;Laerm;62591;55.764;37.718;2023-04-01T09:10:30;48.35;42.30;64.14;;
74234;Laerm;62591;55.764;37.718;2023-04-01T09:13:30;50.66;41.09;60.97;;
74234;Laerm;62591;55.764;37.718;2023-04-01T09:16:22;48.90;42.48;59.80;;
74234;Laerm;62591;55.764;37.718;2023-04-01T09:19:19;50.25;42.80;68.30;;
74234;Laerm;62591;55.764;37.718;2023-04-01T09:22:13;49.49;43.02;59.37;;
74234;Laerm;62591;55.764;37.718;2023-04-01T09:25:08;53.42;43.77;70.35;;
74234;Laerm;62591;55.764;37.718;2023-04-01T09:27:53;49.69;44.14;66.75;;
74234;Laerm;62591;55.764;37.718;2023-04-01T09:34:04;49.27;41.80;62.48;;
74234;Laerm;62591;55.764;37.718;2023-04-01T09:37:17;49.58;41.41;56.44;;
74234;Laerm;62591;55.764;37.718;2023-04-01T09:40:15;49.14;40.63;64.45;;
74234;Laerm;62591;55.764;37.718;2023-04-01T09:43:13;50.01;42.74;57.03;;
74234;Laerm;62591;55.764;37.718;2023-04-01T09:45:52;49.48;43.20;57.32;;
74234;Laerm;62591;55.764;37.718;2023-04-01T09:48:38;49.46;41.96;59.00;;
74234;Laerm;62591;55.764;37.718;2023-04-01T09:51:18;50.20;43.60;58.00;;
74234;Laerm;62591;55.764;37.718;2023-04-01T09:54:04;48.05;41.06;57.65;;
74234;Laerm;62591;55.764;37.718;2023-04-01T10:00:17;50.08;41.63;59.13;;
74234;Laerm;62591;55.764;37.718;2023-04-01T10:06:43;49.33;41.90;70.73;;
74234;Laerm;62591;55.764;37.718;2023-04-01T10:13:03;53.33;45.94;64.19;;
74234;Laerm;62591;55.764;37.718;2023-04-01T10:19:10;51.00;45.55;61.39;;
74234;Laerm;62591;55.764;37.718;2023-04-01T10:22:11;51.12;46.39;58.43;;
74234;Laerm;62591;55.764;37.718;2023-04-01T10:25:10;50.76;43.15;63.75;;
74234;Laerm;62591;55.764;37.718;2023-04-01T10:28:04;50.20;42.24;58.04;;
74234;Laerm;62591;55.764;37.718;2023-04-01T10:31:31;51.11;45.08;61.61;;
74234;Laerm;62591;55.764;37.718;2023-04-01T10:34:34;51.41;42.15;63.60;;
74234;Laerm;62591;55.764;37.718;2023-04-01T10:37:15;51.78;43.26;65.02;;
74234;Laerm;62591;55.764;37.718;2023-04-01T10:40:18;51.18;42.87;64.12;;
74234;Laerm;62591;55.764;37.718;2023-04-01T10:43:51;51.91;42.62;63.35;;
74234;Laerm;62591;55.764;37.718;2023-04-01T10:50:04;59.89;42.16;72.23;;
74234;Laerm;62591;55.764;37.718;2023-04-01T10:53:18;59.29;40.53;74.17;;
74234;Laerm;62591;55.764;37.718;2023-04-01T10:56:40;59.33;41.11;74.68;;
74234;Laerm;62591;55.764;37.718;2023-04-01T10:59:40;49.24;41.74;57.88;;
74234;Laerm;62591;55.764;37.718;2023-04-01T11:06:44;50.54;41.42;68.24;;
74234;Laerm;62591;55.764;37.718;2023-04-01T11:13:08;48.77;41.63;66.73;;
74234;Laerm;62591;55.764;37.718;2023-04-01T11:16:13;49.68;41.56;63.53;;
74234;Laerm;62591;55.764;37.718;2023-04-01T11:22:20;49.40;40.66;57.74;;
74234;Laerm;62591;55.764;37.718;2023-04-01T11:25:21;50.45;41.59;59.14;;
74234;Laerm;62591;55.764;37.718;2023-04-01T11:28:44;49.48;42.47;62.60;;
74234;Laerm;62591;55.764;37.718;2023-04-01T11:31:38;49.14;41.15;57.40;;
74234;Laerm;62591;55.764;37.718;2023-04-01T11:34:20;48.91;42.40;73.52;;
74234;Laerm;62591;55.764;37.718;2023-04-01T11:37:01;49.84;43.13;56.97;;
74234;Laerm;62591;55.764;37.718;2023-04-01T11:39:45;50.68;42.82;69.33;;
74234;Laerm;62591;55.764;37.718;2023-04-01T11:42:44;52.44;44.33;74.07;;
74234;Laerm;62591;55.764;37.718;2023-04-01T11:45:46;51.40;43.88;66.03;;
74234;Laerm;62591;55.764;37.718;2023-04-01T11:48:28;50.62;43.41;73.68;;
74234;Laerm;62591;55.764;37.718;2023-04-01T11:51:15;49.21;42.86;57.30;;
74234;Laerm;62591;55.764;37.718;2023-04-01T11:54:00;49.56;41.46;59.11;;
74234;Laerm;62591;55.764;37.718;2023-04-01T11:57:02;48.38;42.41;66.74;;
74234;Laerm;62591;55.764;37.718;2023-04-01T12:00:00;48.34;41.66;57.96;;
74234;Laerm;62591;55.764;37.718;2023-04-01T12:02:50;49.92;41.65;65.42;;
74234;Laerm;62591;55.764;37.718;2023-04-01T12:05:38;50.45;41.03;69.98;;
74234;Laerm;62591;55.764;37.718;2023-04-01T12:08:21;50.67;42.94;60.45;;
74234;Laerm;62591;55.764;37.718;2023-04-01T12:10:57;50.37;43.07;71.12;;
74234;Laerm;62591;55.764;37.718;2023-04-01T12:13:37;52.66;42.95;71.50;;
74234;Laerm;62591;55.764;37.718;2023-04-01T12:16:29;51.18;43.74;61.78;;
74234;Laerm;62591;55.764;37.718;2023-04-01T12:19:13;49.04;42.21;61.89;;
74234;Laerm;62591;55.764;37.718;2023-04-01T12:21:49;52.66;44.32;59.77;;
74234;Laerm;62591;55.764;37.718;2023-04-01T12:24:42;49.25;42.70;58.48;;
74234;Laerm;62591;55.764;37.718;2023-04-01T12:27:50;50.45;42.47;60.42;;
74234;Laerm;62591;55.764;37.718;2023-04-01T12:30:42;51.50;42.68;72.60;;
74234;Laerm;62591;55.764;37.718;2023-04-01T12:33:42;49.17;41.72;58.71;;
74234;Laerm;62591;55.764;37.718;2023-04-01T12:36:19;50.80;43.15;60.52;;
74234;Laerm;62591;55.764;37.718;2023-04-01T12:39:07;48.16;41.51;58.56;;
74234;Laerm;62591;55.764;37.718;2023-04-01T12:41:43;49.46;41.05;58.83;;
74234;Laerm;62591;55.764;37.718;2023-04-01T12:44:32;50.00;41.80;67.80;;
74234;Laerm;62591;55.764;37.718;2023-04-01T12:50:22;50.69;42.97;63.91;;
74234;Laerm;62591;55.764;37.718;2023-04-01T12:53:17;49.44;40.74;58.69;;
74234;Laerm;62591;55.764;37.718;2023-04-01T12:55:52;50.35;43.66;69.41;;
74234;Laerm;62591;55.764;37.718;2023-04-01T12:58:55;49.93;43.88;62.09;;
74234;Laerm;62591;55.764;37.718;2023-04-01T13:01:40;50.49;44.25;59.12;;
74234;Laerm;62591;55.764;37.718;2023-04-01T13:04:30;49.84;42.43;58.03;;
74234;Laerm;62591;55.764;37.718;2023-04-01T13:07:16;49.09;40.92;56.82;;
74234;Laerm;62591;55.764;37.718;2023-04-01T13:09:54;49.31;43.13;58.14;;
74234;Laerm;62591;55.764;37.718;2023-04-01T13:12:48;50.23;43.69;66.19;;
74234;Laerm;62591;55.764;37.718;2023-04-01T13:15:37;48.53;42.41;55.96;;
74234;Laerm;62591;55.764;37.718;2023-04-01T13:18:19;51.28;44.03;66.38;;
74234;Laerm;62591;55.764;37.718;2023-04-01T13:20:56;48.99;41.45;61.96;;
74234;Laerm;62591;55.764;37.718;2023-04-01T13:23:37;46.51;41.32;55.14;;
74234;Laerm;62591;55.764;37.718;2023-04-01T13:26:16;50.44;42.68;58.86;;
74234;Laerm;62591;55.764;37.718;2023-04-01T13:28:51;50.70;45.38;61.87;;
74234;Laerm;62591;55.764;37.718;2023-04-01T13:31:29;50.82;45.91;61.93;;
74234;Laerm;62591;55.764;37.718;2023-04-01T13:34:13;53.57;44.12;64.31;;
74234;Laerm;62591;55.764;37.718;2023-04-01T13:36:53;50.29;44.04;58.91;;
74234;Laerm;62591;55.764;37.718;2023-04-01T13:39:41;48.60;43.32;61.45;;
74234;Laerm;62591;55.764;37.718;2023-04-01T13:42:18;49.59;44.08;60.60;;
74234;Laerm;62591;55.764;37.718;2023-04-01T13:44:53;51.08;42.64;67.21;;
74234;Laerm;62591;55.764;37.718;2023-04-01T13:48:15;49.37;42.06;57.99;;
74234;Laerm;62591;55.764;37.718;2023-04-01T13:51:13;51.83;42.86;66.88;;
74234;Laerm;62591;55.764;37.718;2023-04-01T13:54:09;51.21;45.30;62.07;;
74234;Laerm;62591;55.764;37.718;2023-04-01T13:56:50;51.70;44.41;64.50;;
74234;Laerm;62591;55.764;37.718;2023-04-01T14:02:49;50.34;44.28;62.47;;
74234;Laerm;62591;55.764;37.718;2023-04-01T14:05:36;51.37;43.13;62.76;;
74234;Laerm;62591;55.764;37.718;2023-04-01T14:08:20;48.34;42.87;59.56;;
74234;Laerm;62591;55.764;37.718;2023-04-01T14:10:58;49.50;43.26;64.90;;
74234;Laerm;62591;55.764;37.718;2023-04-01T14:13:41;49.97;42.26;63.06;;
74234;Laerm;62591;55.764;37.718;2023-04-01T14:16:47;49.58;42.95;63.99;;
74234;Laerm;62591;55.764;37.718;2023-04-01T14:19:30;49.65;42.99;59.85;;
74234;Laerm;62591;55.764;37.718;2023-04-01T14:22:12;48.17;41.78;58.26;;
74234;Laerm;62591;55.764;37.718;2023-04-01T14:27:55;50.04;44.03;56.77;;
74234;Laerm;62591;55.764;37.718;2023-04-01T14:30:51;48.46;42.78;59.35;;
74234;Laerm;62591;55.764;37.718;2023-04-01T14:33:38;48.90;42.41;62.58;;
74234;Laerm;62591;55.764;37.718;2023-04-01T14:36:32;50.04;43.71;57.67;;
74234;Laerm;62591;55.764;37.718;2023-04-01T14:39:15;49.56;43.87;56.57;;
74234;Laerm;62591;55.764;37.718;2023-04-01T14:41:59;49.83;43.70;66.74;;
74234;Laerm;62591;55.764;37.718;2023-04-01T14:45:05;50.32;43.64;67.58;;
74234;Laerm;62591;55.764;37.718;2023-04-01T14:47:53;49.72;43.61;68.47;;
74234;Laerm;62591;55.764;37.718;2023-04-01T14:50:28;49.84;43.97;65.91;;
74234;Laerm;62591;55.764;37.718;2023-04-01T14:53:02;50.44;42.33;58.15;;
74234;Laerm;62591;55.764;37.718;2023-04-01T14:55:49;47.38;40.22;53.67;;
74234;Laerm;62591;55.764;37.718;2023-04-01T14:58:19;50.28;43.41;64.16;;
74234;Laerm;62591;55.764;37.718;2023-04-01T15:01:00;47.81;43.10;55.27;;
74234;Laerm;62591;55.764;37.718;2023-04-01T15:03:40;49.44;44.04;56.84;;
74234;Laerm;62591;55.764;37.718;2023-04-01T15:09:32;51.31;45.64;61.59;;
74234;Laerm;62591;55.764;37.718;2023-04-01T15:12:16;52.58;45.01;65.70;;
74234;Laerm;62591;55.764;37.718;2023-04-01T15:14:54;49.79;44.61;64.62;;
74234;Laerm;62591;55.764;37.718;2023-04-01T15:20:37;50.02;44.02;62.04;;
74234;Laerm;62591;55.764;37.718;2023-04-01T15:23:22;51.00;47.51;56.49;;
74234;Laerm;62591;55.764;37.718;2023-04-01T15:26:13;51.00;45.36;63.43;;
74234;Laerm;62591;55.764;37.718;2023-04-01T15:28:53;50.06;45.13;66.15;;
74234;Laerm;62591;55.764;37.718;2023-04-01T15:31:29;51.67;46.17;75.93;;
74234;Laerm;62591;55.764;37.718;2023-04-01T15:34:21;49.89;45.18;61.07;;
74234;Laerm;62591;55.764;37.718;2023-04-01T15:36:58;49.83;44.26;59.37;;
74234;Laerm;62591;55.764;37.718;2023-04-01T15:39:42;49.32;43.08;57.88;;
74234;Laerm;62591;55.764;37.718;2023-04-01T15:42:33;50.75;42.65;64.59;;